createdAt,value
2019-01-21T00:00:36.380Z,44.70
2019-01-21T00:03:05.891Z,44.80
2019-01-21T00:05:35.097Z,44.80
2019-01-21T00:08:04.278Z,44.80
2019-01-21T00:10:33.483Z,44.80
2019-01-21T00:13:02.770Z,44.80
2019-01-21T00:15:31.935Z,44.70
2019-01-21T00:18:01.134Z,44.70
2019-01-21T00:20:30.358Z,44.60
2019-01-21T00:22:59.617Z,44.60
2019-01-21T00:25:28.807Z,44.60
2019-01-21T00:27:57.999Z,44.60
2019-01-21T00:30:27.188Z,44.60
2019-01-21T00:32:56.393Z,44.60
2019-01-21T00:35:25.569Z,44.60
2019-01-21T00:37:54.754Z,44.50
2019-01-21T00:40:23.982Z,44.50
2019-01-21T00:42:53.150Z,44.60
2019-01-21T00:45:22.370Z,44.60
2019-01-21T00:47:51.562Z,45.20
2019-01-21T00:50:20.723Z,44.70
2019-01-21T00:52:49.954Z,44.60
2019-01-21T00:55:19.145Z,44.60
2019-01-21T00:57:48.358Z,44.70
2019-01-21T01:00:20.424Z,44.60
2019-01-21T01:02:49.665Z,44.60
2019-01-21T01:05:19.128Z,44.60
2019-01-21T01:07:48.326Z,44.60
2019-01-21T01:10:17.510Z,44.60
2019-01-21T01:12:47.354Z,44.60
2019-01-21T01:15:16.516Z,44.60
2019-01-21T01:17:45.713Z,44.60
2019-01-21T01:20:19.855Z,44.70
2019-01-21T01:22:49.032Z,45.30
2019-01-21T01:25:18.133Z,44.70
2019-01-21T01:27:47.315Z,44.80
2019-01-21T01:30:17.235Z,44.70
2019-01-21T01:32:46.467Z,44.80
2019-01-21T01:35:16.550Z,44.70
2019-01-21T01:37:45.960Z,44.80
2019-01-21T01:40:17.458Z,44.70
2019-01-21T01:42:46.898Z,44.80
2019-01-21T01:45:22.389Z,44.80
2019-01-21T01:47:55.101Z,44.70
2019-01-21T01:50:24.194Z,44.70
2019-01-21T01:52:53.479Z,44.80
2019-01-21T01:55:22.830Z,44.80
2019-01-21T01:57:52.104Z,44.70
2019-01-21T02:00:21.429Z,44.80
2019-01-21T02:02:50.630Z,44.80
2019-01-21T02:05:19.833Z,44.70
2019-01-21T02:07:49.394Z,44.70
2019-01-21T02:10:18.554Z,44.70
2019-01-21T02:12:48.278Z,44.60
2019-01-21T02:15:17.471Z,44.60
2019-01-21T02:17:52.081Z,44.50
2019-01-21T02:20:17.668Z,44.40
2019-01-21T02:22:48.518Z,44.40
2019-01-21T02:25:18.114Z,44.50
2019-01-21T02:28:27.178Z,44.40
2019-01-21T02:31:39.747Z,44.40
2019-01-21T02:34:14.436Z,44.40
2019-01-21T02:37:20.530Z,44.40
2019-01-21T02:39:59.931Z,44.40
2019-01-21T02:42:42.941Z,44.40
2019-01-21T02:46:17.790Z,44.40
2019-01-21T02:48:59.973Z,44.40
2019-01-21T02:52:04.835Z,44.50
2019-01-21T02:54:55.888Z,44.50
2019-01-21T02:58:12.289Z,44.40
2019-01-21T03:00:59.014Z,44.40
2019-01-21T03:04:15.855Z,44.50
2019-01-21T03:07:35.296Z,44.40
2019-01-21T03:10:36.891Z,44.60
2019-01-21T03:13:28.305Z,44.50
2019-01-21T03:16:49.589Z,44.50
2019-01-21T03:19:47.710Z,44.50
2019-01-21T03:22:50.805Z,44.50
2019-01-21T03:26:00.176Z,44.50
2019-01-21T03:28:48.293Z,44.50
2019-01-21T03:31:53.267Z,44.50
2019-01-21T03:34:49.781Z,44.50
2019-01-21T03:37:58.711Z,44.50
2019-01-21T03:40:49.599Z,44.40
2019-01-21T03:43:51.610Z,44.40
2019-01-21T03:46:59.860Z,44.50
2019-01-21T03:50:03.381Z,44.40
2019-01-21T03:53:19.513Z,44.40
2019-01-21T03:55:51.055Z,44.40
2019-01-21T03:59:08.655Z,44.40
2019-01-21T04:01:51.705Z,44.40
2019-01-21T04:05:10.270Z,44.40
2019-01-21T04:07:52.841Z,44.40
2019-01-21T04:11:21.270Z,44.40
2019-01-21T04:14:39.191Z,44.40
2019-01-21T04:17:45.108Z,44.40
2019-01-21T04:21:12.732Z,44.40
2019-01-21T04:24:31.594Z,44.40
2019-01-21T04:27:35.651Z,44.40
2019-01-21T04:30:28.663Z,44.40
2019-01-21T04:33:28.759Z,44.30
2019-01-21T04:36:37.309Z,44.30
2019-01-21T04:39:43.770Z,44.20
2019-01-21T04:42:52.709Z,44.00
2019-01-21T04:45:57.089Z,44.10
2019-01-21T04:48:39.721Z,44.20
2019-01-21T04:51:45.375Z,44.20
2019-01-21T04:54:52.971Z,44.30
2019-01-21T04:57:58.086Z,44.20
2019-01-21T05:01:03.813Z,44.40
2019-01-21T05:04:09.965Z,44.30
2019-01-21T05:07:24.624Z,44.20
2019-01-21T05:10:38.366Z,44.40
2019-01-21T05:13:42.853Z,45.10
2019-01-21T05:16:37.759Z,45.30
2019-01-21T05:19:32.532Z,45.50
2019-01-21T05:23:07.473Z,45.40
2019-01-21T05:26:11.298Z,45.40
2019-01-21T05:29:36.666Z,45.50
2019-01-21T05:32:44.233Z,45.50
2019-01-21T05:35:41.396Z,45.40
2019-01-21T05:38:28.911Z,45.70
2019-01-21T05:41:42.633Z,45.90
2019-01-21T05:44:31.457Z,45.90
2019-01-21T05:47:50.082Z,46.00
2019-01-21T05:51:12.031Z,45.60
2019-01-21T05:54:25.041Z,45.60
2019-01-21T05:57:56.501Z,46.20
2019-01-21T06:00:49.578Z,45.50
2019-01-21T06:03:44.069Z,45.30
2019-01-21T06:06:26.633Z,45.00
2019-01-21T06:09:58.744Z,45.00
2019-01-21T06:12:49.511Z,45.10
2019-01-21T06:15:47.397Z,45.10
2019-01-21T06:18:57.305Z,45.10
2019-01-21T06:22:05.184Z,45.10
2019-01-21T06:25:14.346Z,45.10
2019-01-21T06:28:06.674Z,45.10
2019-01-21T06:31:01.757Z,45.60
2019-01-21T06:34:06.987Z,45.60
2019-01-21T06:36:55.895Z,45.60
2019-01-21T06:40:18.406Z,45.50
2019-01-21T06:43:32.618Z,46.00
2019-01-21T06:46:49.005Z,45.20
2019-01-21T06:49:37.068Z,45.20
2019-01-21T06:52:39.055Z,45.20
2019-01-21T06:56:10.605Z,45.10
2019-01-21T06:59:07.446Z,45.20
2019-01-21T07:02:16.915Z,45.20
2019-01-21T07:05:10.290Z,45.20
2019-01-21T07:08:19.700Z,45.10
2019-01-21T07:11:24.817Z,45.10
2019-01-21T07:14:53.133Z,45.00
2019-01-21T07:17:53.686Z,44.60
2019-01-21T07:20:43.629Z,44.40
2019-01-21T07:23:47.261Z,44.60
2019-01-21T07:26:48.733Z,44.20
2019-01-21T07:29:44.557Z,43.80
2019-01-21T07:32:49.966Z,43.60
2019-01-21T07:35:58.089Z,43.60
2019-01-21T07:38:57.968Z,43.60
2019-01-21T07:41:54.398Z,43.60
2019-01-21T07:44:35.145Z,43.60
2019-01-21T07:47:47.434Z,43.90
2019-01-21T07:50:52.051Z,43.90
2019-01-21T07:53:57.199Z,43.90
2019-01-21T07:57:38.230Z,43.90
2019-01-21T08:00:46.609Z,43.90
2019-01-21T08:03:44.649Z,43.90
2019-01-21T08:06:28.683Z,43.70
2019-01-21T08:09:39.341Z,43.60
2019-01-21T08:12:41.951Z,43.40
2019-01-21T08:15:28.461Z,43.20
2019-01-21T08:18:38.957Z,43.30
2019-01-21T08:21:39.661Z,43.50
2019-01-21T08:24:38.033Z,43.70
2019-01-21T08:27:57.364Z,44.00
2019-01-21T08:30:55.891Z,44.00
2019-01-21T08:33:37.485Z,44.00
2019-01-21T08:36:38.050Z,43.50
2019-01-21T08:39:31.088Z,43.10
2019-01-21T08:42:37.241Z,43.40
2019-01-21T08:45:53.653Z,42.80
2019-01-21T08:49:04.225Z,42.60
2019-01-21T08:52:06.314Z,42.50
2019-01-21T08:54:49.093Z,42.30
2019-01-21T08:57:51.199Z,42.40
2019-01-21T09:00:55.210Z,42.20
2019-01-21T09:03:49.889Z,42.40
2019-01-21T09:07:06.438Z,42.70
2019-01-21T09:09:45.138Z,43.10
2019-01-21T09:12:57.003Z,43.30
2019-01-21T09:15:58.121Z,43.30
2019-01-21T09:18:52.633Z,43.30
2019-01-21T09:22:13.882Z,43.20
2019-01-21T09:25:18.010Z,43.10
2019-01-21T09:28:11.886Z,43.30
2019-01-21T09:31:13.207Z,42.90
2019-01-21T09:34:15.719Z,42.50
2019-01-21T09:37:14.843Z,42.30
2019-01-21T09:40:11.289Z,42.10
2019-01-21T09:42:58.565Z,42.20
2019-01-21T09:46:09.830Z,42.40
2019-01-21T09:48:37.520Z,42.60
2019-01-21T09:51:06.845Z,43.00
2019-01-21T09:53:36.825Z,43.40
2019-01-21T09:56:06.516Z,43.10
2019-01-21T09:58:35.720Z,42.50
2019-01-21T10:01:04.963Z,42.30
2019-01-21T10:03:34.221Z,42.10
2019-01-21T10:06:08.865Z,42.10
2019-01-21T10:09:06.317Z,41.80
2019-01-21T10:12:05.129Z,41.60
2019-01-21T10:15:11.117Z,41.40
2019-01-21T10:18:27.472Z,41.30
2019-01-21T10:21:50.070Z,41.60
2019-01-21T10:25:03.486Z,41.60
2019-01-21T10:28:28.732Z,41.80
2019-01-21T10:31:59.497Z,42.20
2019-01-21T10:34:56.004Z,42.70
2019-01-21T10:37:55.781Z,42.90
2019-01-21T10:41:10.684Z,42.90
2019-01-21T10:44:13.357Z,42.90
2019-01-21T10:47:17.841Z,43.00
2019-01-21T10:50:33.562Z,42.90
2019-01-21T10:53:12.878Z,42.80
2019-01-21T10:56:07.684Z,42.60
2019-01-21T10:59:00.759Z,42.40
2019-01-21T11:01:40.599Z,42.30
2019-01-21T11:04:45.478Z,42.30
2019-01-21T11:07:39.078Z,42.20
2019-01-21T11:10:22.446Z,42.40
2019-01-21T11:13:28.690Z,42.80
2019-01-21T11:16:30.436Z,42.90
2019-01-21T11:19:25.531Z,42.90
2019-01-21T11:22:20.381Z,42.60
2019-01-21T11:25:25.934Z,42.50
2019-01-21T11:28:31.810Z,42.10
2019-01-21T11:31:38.644Z,41.80
2019-01-21T11:34:42.454Z,41.70
2019-01-21T11:37:56.034Z,41.40
2019-01-21T11:40:46.422Z,42.00
2019-01-21T11:43:46.706Z,41.20
2019-01-21T11:47:09.157Z,41.10
2019-01-21T11:50:03.637Z,41.20
2019-01-21T11:52:48.106Z,41.40
2019-01-21T11:55:50.497Z,41.70
2019-01-21T11:58:41.690Z,42.20
2019-01-21T12:01:42.835Z,42.50
2019-01-21T12:04:41.046Z,43.30
2019-01-21T12:08:01.006Z,42.80
2019-01-21T12:11:10.798Z,42.80
2019-01-21T12:14:15.606Z,42.80
2019-01-21T12:17:53.224Z,42.80
2019-01-21T12:21:05.078Z,42.70
2019-01-21T12:24:24.251Z,42.50
2019-01-21T12:27:59.030Z,42.40
2019-01-21T12:31:17.942Z,42.40
2019-01-21T12:34:14.594Z,42.70
2019-01-21T12:36:56.934Z,42.80
2019-01-21T12:39:52.282Z,43.50
2019-01-21T12:42:37.286Z,42.60
2019-01-21T12:45:30.125Z,42.30
2019-01-21T12:48:41.125Z,42.40
2019-01-21T12:51:39.268Z,42.00
2019-01-21T12:55:02.181Z,42.00
2019-01-21T12:58:24.790Z,41.60
2019-01-21T13:01:35.008Z,41.30
2019-01-21T13:04:29.657Z,41.10
2019-01-21T13:07:35.543Z,40.80
2019-01-21T13:10:34.030Z,40.80
2019-01-21T13:13:26.525Z,40.80
2019-01-21T13:16:39.649Z,41.00
2019-01-21T13:19:45.330Z,41.00
2019-01-21T13:22:51.454Z,41.20
2019-01-21T13:25:55.513Z,42.00
2019-01-21T13:28:42.162Z,42.00
2019-01-21T13:31:58.441Z,42.40
2019-01-21T13:34:54.210Z,42.60
2019-01-21T13:37:51.558Z,42.70
2019-01-21T13:41:02.134Z,42.60
2019-01-21T13:44:03.821Z,42.60
2019-01-21T13:47:12.942Z,42.70
2019-01-21T13:50:01.925Z,42.90
2019-01-21T13:53:03.889Z,42.80
2019-01-21T13:55:42.073Z,42.80
2019-01-21T13:58:55.927Z,42.90
2019-01-21T14:01:57.738Z,42.80
2019-01-21T14:05:16.563Z,42.50
2019-01-21T14:08:17.246Z,42.10
2019-01-21T14:11:15.065Z,42.00
2019-01-21T14:14:00.031Z,41.60
2019-01-21T14:17:22.518Z,41.40
2019-01-21T14:20:20.555Z,41.10
2019-01-21T14:23:15.685Z,41.10
2019-01-21T14:26:38.022Z,40.90
2019-01-21T14:29:53.838Z,40.90
2019-01-21T14:33:12.827Z,41.20
2019-01-21T14:36:13.894Z,41.30
2019-01-21T14:39:06.676Z,41.40
2019-01-21T14:41:59.658Z,41.70
2019-01-21T14:45:34.239Z,42.10
2019-01-21T14:48:52.036Z,42.50
2019-01-21T14:52:02.402Z,42.70
2019-01-21T14:55:01.578Z,42.70
2019-01-21T14:57:46.101Z,42.70
2019-01-21T15:00:41.905Z,42.70
2019-01-21T15:04:03.242Z,42.70
2019-01-21T15:07:02.615Z,42.80
2019-01-21T15:10:28.388Z,42.80
2019-01-21T15:13:51.114Z,42.80
2019-01-21T15:16:42.983Z,42.80
2019-01-21T15:19:43.904Z,42.80
2019-01-21T15:22:29.630Z,42.90
2019-01-21T15:25:33.517Z,42.90
2019-01-21T15:28:43.635Z,43.50
2019-01-21T15:31:44.525Z,42.90
2019-01-21T15:34:45.706Z,42.90
2019-01-21T15:37:33.446Z,43.00
2019-01-21T15:40:39.796Z,43.00
2019-01-21T15:43:23.272Z,42.90
2019-01-21T15:46:18.626Z,42.20
2019-01-21T15:48:56.411Z,42.30
2019-01-21T15:51:56.198Z,42.30
2019-01-21T15:55:15.858Z,42.00
2019-01-21T15:57:59.525Z,41.60
2019-01-21T16:01:19.113Z,41.70
2019-01-21T16:04:02.131Z,41.40
2019-01-21T16:07:12.539Z,41.90
2019-01-21T16:10:28.840Z,42.80
2019-01-21T16:13:31.883Z,42.50
2019-01-21T16:16:26.146Z,42.20
2019-01-21T16:19:02.394Z,41.90
2019-01-21T16:22:07.679Z,41.80
2019-01-21T16:25:01.658Z,42.10
2019-01-21T16:27:53.439Z,42.70
2019-01-21T16:30:33.913Z,42.90
2019-01-21T16:33:34.601Z,43.00
2019-01-21T16:36:20.022Z,42.90
2019-01-21T16:39:21.381Z,43.00
2019-01-21T16:42:14.971Z,43.00
2019-01-21T16:44:45.771Z,43.10
2019-01-21T16:47:14.954Z,42.90
2019-01-21T16:49:44.621Z,42.90
2019-01-21T16:52:13.825Z,42.80
2019-01-21T16:54:43.043Z,42.80
2019-01-21T16:57:12.286Z,43.50
2019-01-21T16:59:41.466Z,42.90
2019-01-21T17:02:10.659Z,43.00
2019-01-21T17:04:39.892Z,43.00
2019-01-21T17:07:09.122Z,42.90
2019-01-21T17:09:38.275Z,42.50
2019-01-21T17:12:07.487Z,42.70
2019-01-21T17:14:36.625Z,42.30
2019-01-21T17:17:05.753Z,41.90
2019-01-21T17:19:34.929Z,41.40
2019-01-21T17:22:04.198Z,41.40
2019-01-21T17:24:33.382Z,41.20
2019-01-21T17:27:02.619Z,41.20
2019-01-21T17:29:31.845Z,41.10
2019-01-21T17:32:01.012Z,41.20
2019-01-21T17:34:30.170Z,41.40
2019-01-21T17:36:59.331Z,41.60
2019-01-21T17:39:28.502Z,42.60
2019-01-21T17:41:57.689Z,42.40
2019-01-21T17:44:26.854Z,43.10
2019-01-21T17:46:56.342Z,42.70
2019-01-21T17:49:25.544Z,42.80
2019-01-21T17:51:54.739Z,42.90
2019-01-21T17:54:23.961Z,42.90
2019-01-21T17:56:53.548Z,42.90
2019-01-21T17:59:22.790Z,42.90
2019-01-21T18:01:51.950Z,43.00
2019-01-21T18:04:21.200Z,43.10
2019-01-21T18:06:50.359Z,42.80
2019-01-21T18:09:19.538Z,43.00
2019-01-21T18:11:48.746Z,43.00
2019-01-21T18:14:17.953Z,42.90
2019-01-21T18:16:47.088Z,42.80
2019-01-21T18:19:16.241Z,42.70
2019-01-21T18:21:45.485Z,42.60
2019-01-21T18:24:14.674Z,42.60
2019-01-21T18:26:43.836Z,42.60
2019-01-21T18:29:13.388Z,42.80
2019-01-21T18:31:43.106Z,43.30
2019-01-21T18:34:12.379Z,43.40
2019-01-21T18:36:41.657Z,43.30
2019-01-21T18:39:14.118Z,43.20
2019-01-21T18:41:43.287Z,42.80
2019-01-21T18:44:12.643Z,42.60
2019-01-21T18:46:45.131Z,42.80
2019-01-21T18:49:22.662Z,42.40
2019-01-21T18:51:57.605Z,42.10
2019-01-21T18:54:25.844Z,41.90
2019-01-21T18:56:55.221Z,41.70
2019-01-21T18:59:25.295Z,41.70
2019-01-21T19:01:57.196Z,41.60
2019-01-21T19:04:25.471Z,41.50
2019-01-21T19:06:54.666Z,41.40
2019-01-21T19:09:23.946Z,41.40
2019-01-21T19:11:53.145Z,41.40
2019-01-21T19:14:22.357Z,41.40
2019-01-21T19:16:51.594Z,41.60
2019-01-21T19:19:20.802Z,41.90
2019-01-21T19:21:53.565Z,42.20
2019-01-21T19:24:20.805Z,42.70
2019-01-21T19:26:50.086Z,43.00
2019-01-21T19:29:19.240Z,43.40
2019-01-21T19:31:48.450Z,43.80
2019-01-21T19:34:18.025Z,43.80
2019-01-21T19:36:47.240Z,43.90
2019-01-21T19:39:16.528Z,44.10
2019-01-21T19:41:45.807Z,44.20
2019-01-21T19:44:15.431Z,44.40
2019-01-21T19:46:45.045Z,44.60
2019-01-21T19:49:14.901Z,44.70
2019-01-21T19:51:44.424Z,44.70
2019-01-21T19:54:14.294Z,44.90
2019-01-21T19:56:43.494Z,44.90
2019-01-21T19:59:12.726Z,45.50
2019-01-21T20:01:41.925Z,45.10
2019-01-21T20:04:11.230Z,44.70
2019-01-21T20:06:40.415Z,44.70
2019-01-21T20:09:09.741Z,44.40
2019-01-21T20:11:39.084Z,43.70
2019-01-21T20:14:09.053Z,43.40
2019-01-21T20:16:38.814Z,43.00
2019-01-21T20:19:08.305Z,42.80
2019-01-21T20:21:37.543Z,42.70
2019-01-21T20:24:09.754Z,42.70
2019-01-21T20:26:38.939Z,42.70
2019-01-21T20:29:08.317Z,43.10
2019-01-21T20:31:37.508Z,43.40
2019-01-21T20:34:06.687Z,43.60
2019-01-21T20:36:35.948Z,43.70
2019-01-21T20:39:08.143Z,43.80
2019-01-21T20:41:37.630Z,43.80
2019-01-21T20:44:07.133Z,43.90
2019-01-21T20:46:36.637Z,43.90
2019-01-21T20:49:05.891Z,43.90
2019-01-21T20:51:35.393Z,43.90
2019-01-21T20:54:04.566Z,44.10
2019-01-21T20:56:36.770Z,44.00
2019-01-21T20:59:06.117Z,44.10
2019-01-21T21:01:35.334Z,44.10
2019-01-21T21:04:04.570Z,44.20
2019-01-21T21:06:33.798Z,44.20
2019-01-21T21:09:04.310Z,44.20
2019-01-21T21:11:33.564Z,44.20
2019-01-21T21:14:02.806Z,44.20
2019-01-21T21:16:32.002Z,44.20
2019-01-21T21:19:01.206Z,44.10
2019-01-21T21:21:30.434Z,44.20
2019-01-21T21:23:59.768Z,44.10
2019-01-21T21:26:28.996Z,44.10
2019-01-21T21:28:58.211Z,44.20
2019-01-21T21:31:27.491Z,44.20
2019-01-21T21:33:56.977Z,44.20
2019-01-21T21:36:26.393Z,44.20
2019-01-21T21:38:56.036Z,44.30
2019-01-21T21:41:25.345Z,44.30
2019-01-21T21:43:54.963Z,44.40
2019-01-21T21:46:24.177Z,44.60
2019-01-21T21:48:53.389Z,43.20
2019-01-21T21:51:22.617Z,41.20
2019-01-21T21:53:52.231Z,41.50
2019-01-21T21:56:21.418Z,41.90
2019-01-21T21:58:50.632Z,42.50
2019-01-21T22:01:23.840Z,42.90
2019-01-21T22:03:50.725Z,43.20
2019-01-21T22:06:19.934Z,43.40
2019-01-21T22:08:49.129Z,43.60
2019-01-21T22:11:18.433Z,43.80
2019-01-21T22:13:47.738Z,43.90
2019-01-21T22:16:17.212Z,44.00
2019-01-21T22:18:46.416Z,43.90
2019-01-21T22:21:15.666Z,43.90
2019-01-21T22:23:44.853Z,44.00
2019-01-21T22:26:14.073Z,44.10
2019-01-21T22:28:43.792Z,44.20
2019-01-21T22:31:13.277Z,44.30
2019-01-21T22:33:42.521Z,44.40
2019-01-21T22:36:11.710Z,44.40
2019-01-21T22:38:41.009Z,44.50
2019-01-21T22:41:10.534Z,44.50
2019-01-21T22:43:39.802Z,44.60
2019-01-21T22:46:09.664Z,44.60
2019-01-21T22:48:38.882Z,44.60
2019-01-21T22:51:08.190Z,44.70
2019-01-21T22:53:38.022Z,44.50
2019-01-21T22:56:07.178Z,44.40
2019-01-21T22:58:36.541Z,44.30
2019-01-21T23:01:15.324Z,44.20
2019-01-21T23:03:44.508Z,44.00
2019-01-21T23:06:13.702Z,44.30
2019-01-21T23:08:42.919Z,44.50
2019-01-21T23:11:12.156Z,44.50
2019-01-21T23:13:41.577Z,44.50
2019-01-21T23:16:10.798Z,44.20
2019-01-21T23:18:40.005Z,44.80
2019-01-21T23:21:09.176Z,45.00
2019-01-21T23:23:38.422Z,45.00
2019-01-21T23:26:07.633Z,45.00
2019-01-21T23:28:36.832Z,45.00
2019-01-21T23:31:06.438Z,45.00
2019-01-21T23:33:35.714Z,44.90
2019-01-21T23:36:04.917Z,44.80
2019-01-21T23:38:34.410Z,44.80
2019-01-21T23:41:03.616Z,44.90
2019-01-21T23:43:33.182Z,44.90
2019-01-21T23:46:02.378Z,45.00
2019-01-21T23:48:31.573Z,45.10
2019-01-21T23:51:00.741Z,45.00
2019-01-21T23:53:29.962Z,45.10
2019-01-21T23:55:59.167Z,45.10
2019-01-21T23:58:28.370Z,45.10
